sensor_id;sensor_type;location;lat;lon;timestamp;temperature;humidity
67750;DHT22;54550;48.838;8.828;2023-02-23T00:01:15;6.80;99.90
67750;DHT22;54550;48.838;8.828;2023-02-23T00:03:42;6.80;99.90
67750;DHT22;54550;48.838;8.828;2023-02-23T00:06:08;6.80;99.90
67750;DHT22;54550;48.838;8.828;2023-02-23T00:08:34;6.70;99.90
67750;DHT22;54550;48.838;8.828;2023-02-23T00:11:06;6.70;99.90
67750;DHT22;54550;48.838;8.828;2023-02-23T00:13:32;6.90;99.90
67750;DHT22;54550;48.838;8.828;2023-02-23T00:16:09;6.80;99.90
67750;DHT22;54550;48.838;8.828;2023-02-23T00:18:44;6.60;99.90
67750;DHT22;54550;48.838;8.828;2023-02-23T00:21:18;6.60;99.90
67750;DHT22;54550;48.838;8.828;2023-02-23T00:23:53;6.40;99.90
67750;DHT22;54550;48.838;8.828;2023-02-23T00:26:20;6.80;99.90
67750;DHT22;54550;48.838;8.828;2023-02-23T00:28:48;6.70;99.90
67750;DHT22;54550;48.838;8.828;2023-02-23T00:31:15;6.70;99.90
67750;DHT22;54550;48.838;8.828;2023-02-23T00:33:41;6.60;99.90
67750;DHT22;54550;48.838;8.828;2023-02-23T00:36:10;6.60;99.90
67750;DHT22;54550;48.838;8.828;2023-02-23T00:38:37;6.60;99.90
67750;DHT22;54550;48.838;8.828;2023-02-23T00:41:08;6.60;99.90
67750;DHT22;54550;48.838;8.828;2023-02-23T00:43:36;6.70;99.90
67750;DHT22;54550;48.838;8.828;2023-02-23T00:46:03;6.60;99.90
67750;DHT22;54550;48.838;8.828;2023-02-23T00:48:32;6.60;99.90
67750;DHT22;54550;48.838;8.828;2023-02-23T00:51:03;6.60;99.90
67750;DHT22;54550;48.838;8.828;2023-02-23T00:53:30;6.60;99.90
67750;DHT22;54550;48.838;8.828;2023-02-23T00:55:56;6.60;99.90
67750;DHT22;54550;48.838;8.828;2023-02-23T00:58:25;6.60;99.90
67750;DHT22;54550;48.838;8.828;2023-02-23T01:00:52;6.70;99.90
67750;DHT22;54550;48.838;8.828;2023-02-23T01:03:18;6.60;99.90
67750;DHT22;54550;48.838;8.828;2023-02-23T01:05:43;6.60;99.90
67750;DHT22;54550;48.838;8.828;2023-02-23T01:08:10;6.60;99.90
67750;DHT22;54550;48.838;8.828;2023-02-23T01:10:40;6.80;99.90
67750;DHT22;54550;48.838;8.828;2023-02-23T01:13:09;6.70;99.90
67750;DHT22;54550;48.838;8.828;2023-02-23T01:15:42;6.70;99.90
67750;DHT22;54550;48.838;8.828;2023-02-23T01:18:09;6.70;99.90
67750;DHT22;54550;48.838;8.828;2023-02-23T01:20:35;6.60;99.90
67750;DHT22;54550;48.838;8.828;2023-02-23T01:23:02;6.60;99.90
67750;DHT22;54550;48.838;8.828;2023-02-23T01:25:27;6.70;99.90
67750;DHT22;54550;48.838;8.828;2023-02-23T01:27:53;6.70;99.90
67750;DHT22;54550;48.838;8.828;2023-02-23T01:30:19;6.90;99.90
67750;DHT22;54550;48.838;8.828;2023-02-23T01:32:45;6.80;99.90
67750;DHT22;54550;48.838;8.828;2023-02-23T01:35:11;6.80;99.90
67750;DHT22;54550;48.838;8.828;2023-02-23T01:37:38;6.80;99.90
67750;DHT22;54550;48.838;8.828;2023-02-23T01:40:06;6.70;99.90
67750;DHT22;54550;48.838;8.828;2023-02-23T01:42:37;6.70;99.90
67750;DHT22;54550;48.838;8.828;2023-02-23T01:47:47;6.70;99.90
67750;DHT22;54550;48.838;8.828;2023-02-23T01:50:14;6.60;99.90
67750;DHT22;54550;48.838;8.828;2023-02-23T01:52:42;6.60;99.90
67750;DHT22;54550;48.838;8.828;2023-02-23T01:55:12;6.60;99.90
67750;DHT22;54550;48.838;8.828;2023-02-23T01:57:39;6.60;99.90
67750;DHT22;54550;48.838;8.828;2023-02-23T02:00:11;6.50;99.90
67750;DHT22;54550;48.838;8.828;2023-02-23T02:02:39;6.60;99.90
67750;DHT22;54550;48.838;8.828;2023-02-23T02:05:06;6.60;99.90
67750;DHT22;54550;48.838;8.828;2023-02-23T02:07:37;6.60;99.90
67750;DHT22;54550;48.838;8.828;2023-02-23T02:10:05;6.60;99.90
67750;DHT22;54550;48.838;8.828;2023-02-23T02:12:38;6.60;99.90
67750;DHT22;54550;48.838;8.828;2023-02-23T02:15:06;6.70;99.90
67750;DHT22;54550;48.838;8.828;2023-02-23T02:17:36;6.60;99.90
67750;DHT22;54550;48.838;8.828;2023-02-23T02:20:35;6.60;99.90
67750;DHT22;54550;48.838;8.828;2023-02-23T02:23:32;6.60;99.90
67750;DHT22;54550;48.838;8.828;2023-02-23T02:29:22;6.60;99.90
67750;DHT22;54550;48.838;8.828;2023-02-23T02:31:59;6.60;99.90
67750;DHT22;54550;48.838;8.828;2023-02-23T02:42:53;6.50;99.90
67750;DHT22;54550;48.838;8.828;2023-02-23T02:56:19;6.50;99.90
67750;DHT22;54550;48.838;8.828;2023-02-23T02:58:46;6.50;99.90
67750;DHT22;54550;48.838;8.828;2023-02-23T03:01:15;6.60;99.90
67750;DHT22;54550;48.838;8.828;2023-02-23T03:04:16;6.80;99.90
67750;DHT22;54550;48.838;8.828;2023-02-23T03:07:07;6.60;99.90
67750;DHT22;54550;48.838;8.828;2023-02-23T03:09:56;6.60;99.90
67750;DHT22;54550;48.838;8.828;2023-02-23T03:13:05;6.60;99.90
67750;DHT22;54550;48.838;8.828;2023-02-23T03:19:07;6.60;99.90
67750;DHT22;54550;48.838;8.828;2023-02-23T03:22:01;6.60;99.90
67750;DHT22;54550;48.838;8.828;2023-02-23T03:25:03;6.50;99.90
67750;DHT22;54550;48.838;8.828;2023-02-23T03:27:58;6.50;99.90
67750;DHT22;54550;48.838;8.828;2023-02-23T03:30:52;6.60;99.90
67750;DHT22;54550;48.838;8.828;2023-02-23T03:33:45;6.60;99.90
67750;DHT22;54550;48.838;8.828;2023-02-23T03:36:35;6.60;99.90
67750;DHT22;54550;48.838;8.828;2023-02-23T03:39:36;6.70;99.90
67750;DHT22;54550;48.838;8.828;2023-02-23T03:42:27;6.60;99.90
67750;DHT22;54550;48.838;8.828;2023-02-23T03:45:16;6.60;99.90
67750;DHT22;54550;48.838;8.828;2023-02-23T03:48:03;6.50;99.90
67750;DHT22;54550;48.838;8.828;2023-02-23T03:50:52;6.50;99.90
67750;DHT22;54550;48.838;8.828;2023-02-23T03:53:51;6.50;99.90
67750;DHT22;54550;48.838;8.828;2023-02-23T03:56:38;6.60;99.90
67750;DHT22;54550;48.838;8.828;2023-02-23T03:59:28;6.60;99.90
67750;DHT22;54550;48.838;8.828;2023-02-23T04:02:15;6.50;99.90
67750;DHT22;54550;48.838;8.828;2023-02-23T04:05:05;6.60;99.90
67750;DHT22;54550;48.838;8.828;2023-02-23T04:07:52;6.60;99.90
67750;DHT22;54550;48.838;8.828;2023-02-23T04:10:43;6.50;99.90
67750;DHT22;54550;48.838;8.828;2023-02-23T04:13:30;6.50;99.90
67750;DHT22;54550;48.838;8.828;2023-02-23T04:15:59;6.40;99.90
67750;DHT22;54550;48.838;8.828;2023-02-23T04:18:28;6.40;99.90
67750;DHT22;54550;48.838;8.828;2023-02-23T04:20:56;6.40;99.90
67750;DHT22;54550;48.838;8.828;2023-02-23T04:23:23;6.40;99.90
67750;DHT22;54550;48.838;8.828;2023-02-23T04:25:52;6.30;99.90
67750;DHT22;54550;48.838;8.828;2023-02-23T04:28:19;6.30;99.90
67750;DHT22;54550;48.838;8.828;2023-02-23T04:30:45;6.40;99.90
67750;DHT22;54550;48.838;8.828;2023-02-23T04:33:11;6.30;99.90
67750;DHT22;54550;48.838;8.828;2023-02-23T04:35:36;6.40;99.90
67750;DHT22;54550;48.838;8.828;2023-02-23T04:38:02;6.40;99.90
67750;DHT22;54550;48.838;8.828;2023-02-23T04:40:28;6.40;99.90
67750;DHT22;54550;48.838;8.828;2023-02-23T04:42:54;6.50;99.90
67750;DHT22;54550;48.838;8.828;2023-02-23T04:45:21;6.50;99.90
67750;DHT22;54550;48.838;8.828;2023-02-23T04:47:48;6.60;99.90
67750;DHT22;54550;48.838;8.828;2023-02-23T04:50:13;6.80;99.90
67750;DHT22;54550;48.838;8.828;2023-02-23T04:52:40;6.70;99.90
67750;DHT22;54550;48.838;8.828;2023-02-23T04:55:07;6.60;99.90
67750;DHT22;54550;48.838;8.828;2023-02-23T04:57:34;6.60;99.90
67750;DHT22;54550;48.838;8.828;2023-02-23T04:59:59;6.70;99.90
67750;DHT22;54550;48.838;8.828;2023-02-23T05:02:26;6.60;99.90
67750;DHT22;54550;48.838;8.828;2023-02-23T05:04:51;6.50;99.90
67750;DHT22;54550;48.838;8.828;2023-02-23T05:07:17;6.60;99.90
67750;DHT22;54550;48.838;8.828;2023-02-23T05:09:43;6.50;99.90
67750;DHT22;54550;48.838;8.828;2023-02-23T05:12:08;6.50;99.90
67750;DHT22;54550;48.838;8.828;2023-02-23T05:14:34;6.50;99.90
67750;DHT22;54550;48.838;8.828;2023-02-23T05:17:00;6.50;99.90
67750;DHT22;54550;48.838;8.828;2023-02-23T05:19:25;6.50;99.90
67750;DHT22;54550;48.838;8.828;2023-02-23T05:21:51;6.50;99.90
67750;DHT22;54550;48.838;8.828;2023-02-23T05:24:17;6.40;99.90
67750;DHT22;54550;48.838;8.828;2023-02-23T05:26:43;6.40;99.90
67750;DHT22;54550;48.838;8.828;2023-02-23T05:29:09;6.40;99.90
67750;DHT22;54550;48.838;8.828;2023-02-23T05:31:35;6.30;99.90
67750;DHT22;54550;48.838;8.828;2023-02-23T05:34:00;6.40;99.90
67750;DHT22;54550;48.838;8.828;2023-02-23T05:36:26;6.30;99.90
67750;DHT22;54550;48.838;8.828;2023-02-23T05:38:52;6.30;99.90
67750;DHT22;54550;48.838;8.828;2023-02-23T05:41:19;6.40;99.90
67750;DHT22;54550;48.838;8.828;2023-02-23T05:43:45;6.40;99.90
67750;DHT22;54550;48.838;8.828;2023-02-23T05:46:15;6.40;99.90
67750;DHT22;54550;48.838;8.828;2023-02-23T05:48:42;6.40;99.90
67750;DHT22;54550;48.838;8.828;2023-02-23T05:51:10;6.30;99.90
67750;DHT22;54550;48.838;8.828;2023-02-23T05:53:36;6.30;99.90
67750;DHT22;54550;48.838;8.828;2023-02-23T05:56:03;6.30;99.90
67750;DHT22;54550;48.838;8.828;2023-02-23T05:58:29;6.40;99.90
67750;DHT22;54550;48.838;8.828;2023-02-23T06:00:55;6.30;99.90
67750;DHT22;54550;48.838;8.828;2023-02-23T06:03:20;6.30;99.90
67750;DHT22;54550;48.838;8.828;2023-02-23T06:05:54;6.20;99.90
67750;DHT22;54550;48.838;8.828;2023-02-23T06:08:21;6.30;99.90
67750;DHT22;54550;48.838;8.828;2023-02-23T06:10:47;6.20;99.90
67750;DHT22;54550;48.838;8.828;2023-02-23T06:13:13;6.20;99.90
67750;DHT22;54550;48.838;8.828;2023-02-23T06:15:39;6.40;99.90
67750;DHT22;54550;48.838;8.828;2023-02-23T06:18:05;6.30;99.90
67750;DHT22;54550;48.838;8.828;2023-02-23T06:20:31;6.30;99.90
67750;DHT22;54550;48.838;8.828;2023-02-23T06:22:57;6.30;99.90
67750;DHT22;54550;48.838;8.828;2023-02-23T06:25:23;6.40;99.90
67750;DHT22;54550;48.838;8.828;2023-02-23T06:27:48;6.50;99.90
67750;DHT22;54550;48.838;8.828;2023-02-23T06:30:14;6.50;99.90
67750;DHT22;54550;48.838;8.828;2023-02-23T06:32:40;6.60;99.90
67750;DHT22;54550;48.838;8.828;2023-02-23T06:35:06;6.60;99.90
67750;DHT22;54550;48.838;8.828;2023-02-23T06:37:33;6.60;99.90
67750;DHT22;54550;48.838;8.828;2023-02-23T06:39:59;6.50;99.90
67750;DHT22;54550;48.838;8.828;2023-02-23T06:42:25;6.50;99.90
67750;DHT22;54550;48.838;8.828;2023-02-23T06:44:50;6.50;99.90
67750;DHT22;54550;48.838;8.828;2023-02-23T06:47:16;6.40;99.90
67750;DHT22;54550;48.838;8.828;2023-02-23T06:49:42;6.50;99.90
67750;DHT22;54550;48.838;8.828;2023-02-23T06:52:08;6.60;99.90
67750;DHT22;54550;48.838;8.828;2023-02-23T06:54:34;6.60;99.90
67750;DHT22;54550;48.838;8.828;2023-02-23T06:57:00;6.70;99.90
67750;DHT22;54550;48.838;8.828;2023-02-23T06:59:25;6.60;99.90
67750;DHT22;54550;48.838;8.828;2023-02-23T07:01:51;6.60;99.90
67750;DHT22;54550;48.838;8.828;2023-02-23T07:04:16;6.70;99.90
67750;DHT22;54550;48.838;8.828;2023-02-23T07:06:42;6.70;99.90
67750;DHT22;54550;48.838;8.828;2023-02-23T07:09:08;6.70;99.90
67750;DHT22;54550;48.838;8.828;2023-02-23T07:11:33;6.80;99.90
67750;DHT22;54550;48.838;8.828;2023-02-23T07:14:00;6.70;99.90
67750;DHT22;54550;48.838;8.828;2023-02-23T07:16:27;6.70;99.90
67750;DHT22;54550;48.838;8.828;2023-02-23T07:18:53;6.90;99.90
67750;DHT22;54550;48.838;8.828;2023-02-23T07:21:19;6.70;99.90
67750;DHT22;54550;48.838;8.828;2023-02-23T07:23:46;6.70;99.90
67750;DHT22;54550;48.838;8.828;2023-02-23T07:26:14;6.80;99.90
67750;DHT22;54550;48.838;8.828;2023-02-23T07:28:41;6.80;99.90
67750;DHT22;54550;48.838;8.828;2023-02-23T07:31:07;6.80;99.90
67750;DHT22;54550;48.838;8.828;2023-02-23T07:33:32;6.80;99.90
67750;DHT22;54550;48.838;8.828;2023-02-23T07:35:58;6.90;99.90
67750;DHT22;54550;48.838;8.828;2023-02-23T07:38:23;6.90;99.90
67750;DHT22;54550;48.838;8.828;2023-02-23T07:40:50;6.90;99.90
67750;DHT22;54550;48.838;8.828;2023-02-23T07:43:15;6.90;99.90
67750;DHT22;54550;48.838;8.828;2023-02-23T07:45:41;7.00;99.90
67750;DHT22;54550;48.838;8.828;2023-02-23T07:48:07;6.90;99.90
67750;DHT22;54550;48.838;8.828;2023-02-23T07:50:33;7.00;99.90
67750;DHT22;54550;48.838;8.828;2023-02-23T07:53:00;7.00;99.90
67750;DHT22;54550;48.838;8.828;2023-02-23T07:55:26;7.10;99.90
67750;DHT22;54550;48.838;8.828;2023-02-23T07:57:51;7.10;99.90
67750;DHT22;54550;48.838;8.828;2023-02-23T08:00:17;7.30;99.90
67750;DHT22;54550;48.838;8.828;2023-02-23T08:02:43;7.30;99.90
67750;DHT22;54550;48.838;8.828;2023-02-23T08:05:09;7.30;99.90
67750;DHT22;54550;48.838;8.828;2023-02-23T08:07:35;7.30;99.90
67750;DHT22;54550;48.838;8.828;2023-02-23T08:10:01;7.30;99.90
67750;DHT22;54550;48.838;8.828;2023-02-23T08:12:26;7.30;99.90
67750;DHT22;54550;48.838;8.828;2023-02-23T08:14:52;7.40;99.90
67750;DHT22;54550;48.838;8.828;2023-02-23T08:17:18;7.70;99.90
67750;DHT22;54550;48.838;8.828;2023-02-23T08:19:44;7.40;99.90
67750;DHT22;54550;48.838;8.828;2023-02-23T08:22:09;7.60;99.90
67750;DHT22;54550;48.838;8.828;2023-02-23T08:24:36;7.60;99.90
67750;DHT22;54550;48.838;8.828;2023-02-23T08:27:02;7.80;99.90
67750;DHT22;54550;48.838;8.828;2023-02-23T08:29:28;7.90;99.90
67750;DHT22;54550;48.838;8.828;2023-02-23T08:31:54;8.00;99.90
67750;DHT22;54550;48.838;8.828;2023-02-23T08:34:21;8.00;99.90
67750;DHT22;54550;48.838;8.828;2023-02-23T08:36:47;8.40;99.90
67750;DHT22;54550;48.838;8.828;2023-02-23T08:39:13;8.60;99.90
67750;DHT22;54550;48.838;8.828;2023-02-23T08:41:40;8.70;99.90
67750;DHT22;54550;48.838;8.828;2023-02-23T08:44:06;8.90;99.90
67750;DHT22;54550;48.838;8.828;2023-02-23T08:46:32;9.10;99.90
67750;DHT22;54550;48.838;8.828;2023-02-23T08:48:57;9.20;99.90
67750;DHT22;54550;48.838;8.828;2023-02-23T08:51:24;9.30;99.90
67750;DHT22;54550;48.838;8.828;2023-02-23T08:53:49;9.30;99.90
67750;DHT22;54550;48.838;8.828;2023-02-23T08:56:15;9.30;99.90
67750;DHT22;54550;48.838;8.828;2023-02-23T08:58:41;9.30;99.90
67750;DHT22;54550;48.838;8.828;2023-02-23T09:01:13;9.60;99.90
67750;DHT22;54550;48.838;8.828;2023-02-23T09:03:40;10.00;99.90
67750;DHT22;54550;48.838;8.828;2023-02-23T09:06:09;10.20;99.90
67750;DHT22;54550;48.838;8.828;2023-02-23T09:08:35;10.40;99.90
67750;DHT22;54550;48.838;8.828;2023-02-23T09:11:01;10.60;99.90
67750;DHT22;54550;48.838;8.828;2023-02-23T09:13:27;10.80;99.90
67750;DHT22;54550;48.838;8.828;2023-02-23T09:15:52;11.30;99.90
67750;DHT22;54550;48.838;8.828;2023-02-23T09:18:19;12.10;99.90
67750;DHT22;54550;48.838;8.828;2023-02-23T09:20:44;12.70;99.90
67750;DHT22;54550;48.838;8.828;2023-02-23T09:23:11;12.80;99.90
67750;DHT22;54550;48.838;8.828;2023-02-23T09:25:41;13.20;99.90
67750;DHT22;54550;48.838;8.828;2023-02-23T09:28:15;13.70;99.90
67750;DHT22;54550;48.838;8.828;2023-02-23T09:30:42;13.90;99.90
67750;DHT22;54550;48.838;8.828;2023-02-23T09:33:09;14.00;99.90
67750;DHT22;54550;48.838;8.828;2023-02-23T09:35:35;13.90;99.90
67750;DHT22;54550;48.838;8.828;2023-02-23T09:38:03;14.50;99.90
67750;DHT22;54550;48.838;8.828;2023-02-23T09:48:21;13.20;99.90
67750;DHT22;54550;48.838;8.828;2023-02-23T09:50:57;13.00;99.90
67750;DHT22;54550;48.838;8.828;2023-02-23T09:56:11;13.70;99.90
67750;DHT22;54550;48.838;8.828;2023-02-23T09:58:38;13.90;99.90
67750;DHT22;54550;48.838;8.828;2023-02-23T10:04:30;14.00;99.90
67750;DHT22;54550;48.838;8.828;2023-02-23T10:07:01;13.70;99.90
67750;DHT22;54550;48.838;8.828;2023-02-23T10:12:28;14.10;99.90
67750;DHT22;54550;48.838;8.828;2023-02-23T10:17:39;13.80;99.90
67750;DHT22;54550;48.838;8.828;2023-02-23T10:23:20;13.80;99.90
67750;DHT22;54550;48.838;8.828;2023-02-23T10:25:49;13.80;99.90
67750;DHT22;54550;48.838;8.828;2023-02-23T10:28:18;13.50;99.90
67750;DHT22;54550;48.838;8.828;2023-02-23T10:30:47;13.20;99.90
67750;DHT22;54550;48.838;8.828;2023-02-23T10:33:19;13.00;99.90
67750;DHT22;54550;48.838;8.828;2023-02-23T10:35:46;12.80;99.90
67750;DHT22;54550;48.838;8.828;2023-02-23T10:38:15;12.80;99.90
67750;DHT22;54550;48.838;8.828;2023-02-23T10:40:42;12.60;99.90
67750;DHT22;54550;48.838;8.828;2023-02-23T10:43:09;12.80;99.90
67750;DHT22;54550;48.838;8.828;2023-02-23T10:45:43;12.50;99.90
67750;DHT22;54550;48.838;8.828;2023-02-23T10:48:17;12.40;99.90
67750;DHT22;54550;48.838;8.828;2023-02-23T10:50:44;12.50;99.90
67750;DHT22;54550;48.838;8.828;2023-02-23T10:53:17;12.50;99.90
67750;DHT22;54550;48.838;8.828;2023-02-23T10:55:44;12.60;99.90
67750;DHT22;54550;48.838;8.828;2023-02-23T10:58:16;12.50;99.90
67750;DHT22;54550;48.838;8.828;2023-02-23T11:00:54;12.20;99.90
67750;DHT22;54550;48.838;8.828;2023-02-23T11:03:37;11.90;99.90
67750;DHT22;54550;48.838;8.828;2023-02-23T11:06:03;11.90;99.90
67750;DHT22;54550;48.838;8.828;2023-02-23T11:08:37;12.10;99.90
67750;DHT22;54550;48.838;8.828;2023-02-23T11:13:39;12.10;99.90
67750;DHT22;54550;48.838;8.828;2023-02-23T11:16:06;12.20;99.90
67750;DHT22;54550;48.838;8.828;2023-02-23T11:18:35;11.90;99.90
67750;DHT22;54550;48.838;8.828;2023-02-23T11:21:00;11.80;99.90
67750;DHT22;54550;48.838;8.828;2023-02-23T11:23:33;11.90;99.90
67750;DHT22;54550;48.838;8.828;2023-02-23T11:26:02;11.70;99.90
67750;DHT22;54550;48.838;8.828;2023-02-23T11:28:31;11.70;99.90
67750;DHT22;54550;48.838;8.828;2023-02-23T11:31:25;11.60;99.90
67750;DHT22;54550;48.838;8.828;2023-02-23T11:33:48;11.60;99.90
67750;DHT22;54550;48.838;8.828;2023-02-23T11:36:27;11.50;99.90
67750;DHT22;54550;48.838;8.828;2023-02-23T11:39:20;11.60;99.90
67750;DHT22;54550;48.838;8.828;2023-02-23T11:42:13;11.50;99.90
67750;DHT22;54550;48.838;8.828;2023-02-23T11:44:39;11.40;99.90
67750;DHT22;54550;48.838;8.828;2023-02-23T11:47:15;11.30;99.90
67750;DHT22;54550;48.838;8.828;2023-02-23T11:49:44;11.30;99.90
67750;DHT22;54550;48.838;8.828;2023-02-23T11:52:20;11.20;99.90
67750;DHT22;54550;48.838;8.828;2023-02-23T11:55:01;10.90;99.90
67750;DHT22;54550;48.838;8.828;2023-02-23T11:57:31;10.80;99.90
67750;DHT22;54550;48.838;8.828;2023-02-23T12:00:00;10.70;99.90
67750;DHT22;54550;48.838;8.828;2023-02-23T12:02:28;10.70;99.90
67750;DHT22;54550;48.838;8.828;2023-02-23T12:05:07;10.70;99.90
67750;DHT22;54550;48.838;8.828;2023-02-23T12:07:36;10.60;99.90
67750;DHT22;54550;48.838;8.828;2023-02-23T12:10:28;10.70;99.90
67750;DHT22;54550;48.838;8.828;2023-02-23T12:20:55;10.80;99.90
67750;DHT22;54550;48.838;8.828;2023-02-23T12:23:25;10.90;99.90
67750;DHT22;54550;48.838;8.828;2023-02-23T12:26:11;11.10;99.90
67750;DHT22;54550;48.838;8.828;2023-02-23T12:28:58;11.10;99.90
67750;DHT22;54550;48.838;8.828;2023-02-23T12:31:51;11.20;99.90
67750;DHT22;54550;48.838;8.828;2023-02-23T12:37:25;11.60;99.90
67750;DHT22;54550;48.838;8.828;2023-02-23T12:40:26;11.80;99.90
67750;DHT22;54550;48.838;8.828;2023-02-23T12:43:06;11.80;99.90
67750;DHT22;54550;48.838;8.828;2023-02-23T12:45:43;11.80;99.90
67750;DHT22;54550;48.838;8.828;2023-02-23T12:53:54;11.70;99.90
67750;DHT22;54550;48.838;8.828;2023-02-23T13:02:03;11.60;99.90
67750;DHT22;54550;48.838;8.828;2023-02-23T13:07:41;11.40;99.90
67750;DHT22;54550;48.838;8.828;2023-02-23T13:13:30;11.40;99.90
67750;DHT22;54550;48.838;8.828;2023-02-23T13:16:14;11.40;99.90
67750;DHT22;54550;48.838;8.828;2023-02-23T13:19:02;11.20;99.90
67750;DHT22;54550;48.838;8.828;2023-02-23T13:21:32;11.00;99.90
67750;DHT22;54550;48.838;8.828;2023-02-23T13:24:22;10.90;99.90
67750;DHT22;54550;48.838;8.828;2023-02-23T13:29:40;10.60;99.90
67750;DHT22;54550;48.838;8.828;2023-02-23T13:32:12;10.60;99.90
67750;DHT22;54550;48.838;8.828;2023-02-23T13:34:43;10.50;99.90
67750;DHT22;54550;48.838;8.828;2023-02-23T13:37:12;10.40;99.90
67750;DHT22;54550;48.838;8.828;2023-02-23T13:47:20;9.60;99.90
67750;DHT22;54550;48.838;8.828;2023-02-23T13:52:39;9.30;99.90
67750;DHT22;54550;48.838;8.828;2023-02-23T13:57:51;9.10;99.90
67750;DHT22;54550;48.838;8.828;2023-02-23T14:00:19;9.00;99.90
67750;DHT22;54550;48.838;8.828;2023-02-23T14:02:45;8.90;99.90
67750;DHT22;54550;48.838;8.828;2023-02-23T14:05:18;8.80;99.90
67750;DHT22;54550;48.838;8.828;2023-02-23T14:07:47;8.80;99.90
67750;DHT22;54550;48.838;8.828;2023-02-23T14:10:23;8.80;99.90
67750;DHT22;54550;48.838;8.828;2023-02-23T14:34:54;9.20;99.90
67750;DHT22;54550;48.838;8.828;2023-02-23T14:37:34;9.30;99.90
67750;DHT22;54550;48.838;8.828;2023-02-23T14:40:13;9.30;99.90
67750;DHT22;54550;48.838;8.828;2023-02-23T14:42:40;9.40;99.90
67750;DHT22;54550;48.838;8.828;2023-02-23T14:45:26;9.30;99.90
67750;DHT22;54550;48.838;8.828;2023-02-23T14:48:00;9.40;99.90
67750;DHT22;54550;48.838;8.828;2023-02-23T14:50:36;9.40;99.90
67750;DHT22;54550;48.838;8.828;2023-02-23T14:53:06;9.40;99.90
67750;DHT22;54550;48.838;8.828;2023-02-23T14:55:39;9.40;99.90
67750;DHT22;54550;48.838;8.828;2023-02-23T14:58:25;9.40;99.90
67750;DHT22;54550;48.838;8.828;2023-02-23T15:00:51;9.50;99.90
67750;DHT22;54550;48.838;8.828;2023-02-23T15:03:17;9.40;99.90
67750;DHT22;54550;48.838;8.828;2023-02-23T15:05:51;9.50;99.90
67750;DHT22;54550;48.838;8.828;2023-02-23T15:08:21;9.60;99.90
67750;DHT22;54550;48.838;8.828;2023-02-23T15:11:13;9.50;99.90
67750;DHT22;54550;48.838;8.828;2023-02-23T15:13:44;9.60;99.90
67750;DHT22;54550;48.838;8.828;2023-02-23T15:16:20;9.50;99.90
67750;DHT22;54550;48.838;8.828;2023-02-23T15:18:48;9.60;99.90
67750;DHT22;54550;48.838;8.828;2023-02-23T15:21:18;9.50;99.90
67750;DHT22;54550;48.838;8.828;2023-02-23T15:23:48;9.50;99.90
67750;DHT22;54550;48.838;8.828;2023-02-23T15:26:28;9.50;99.90
67750;DHT22;54550;48.838;8.828;2023-02-23T15:31:41;9.50;99.90
67750;DHT22;54550;48.838;8.828;2023-02-23T15:34:15;9.50;99.90
67750;DHT22;54550;48.838;8.828;2023-02-23T15:36:51;9.40;99.90
67750;DHT22;54550;48.838;8.828;2023-02-23T15:39:20;9.40;99.90
67750;DHT22;54550;48.838;8.828;2023-02-23T15:41:58;9.50;99.90
67750;DHT22;54550;48.838;8.828;2023-02-23T15:44:25;9.40;99.90
67750;DHT22;54550;48.838;8.828;2023-02-23T15:46:55;9.80;99.90
67750;DHT22;54550;48.838;8.828;2023-02-23T15:49:25;9.40;99.90
67750;DHT22;54550;48.838;8.828;2023-02-23T15:51:58;9.50;99.90
67750;DHT22;54550;48.838;8.828;2023-02-23T15:54:33;9.40;99.90
67750;DHT22;54550;48.838;8.828;2023-02-23T15:57:07;9.30;99.90
67750;DHT22;54550;48.838;8.828;2023-02-23T15:59:39;9.20;99.90
67750;DHT22;54550;48.838;8.828;2023-02-23T16:02:16;9.20;99.90
67750;DHT22;54550;48.838;8.828;2023-02-23T16:04:44;9.10;99.90
67750;DHT22;54550;48.838;8.828;2023-02-23T16:07:20;9.20;99.90
67750;DHT22;54550;48.838;8.828;2023-02-23T16:09:52;9.20;99.90
67750;DHT22;54550;48.838;8.828;2023-02-23T16:12:24;9.30;99.90
67750;DHT22;54550;48.838;8.828;2023-02-23T16:14:58;9.20;99.90
67750;DHT22;54550;48.838;8.828;2023-02-23T16:20:28;9.10;99.90
67750;DHT22;54550;48.838;8.828;2023-02-23T16:22:55;9.10;99.90
67750;DHT22;54550;48.838;8.828;2023-02-23T16:25:25;9.10;99.90
67750;DHT22;54550;48.838;8.828;2023-02-23T16:28:30;9.00;99.90
67750;DHT22;54550;48.838;8.828;2023-02-23T16:31:03;9.10;99.90
67750;DHT22;54550;48.838;8.828;2023-02-23T16:33:50;9.00;99.90
67750;DHT22;54550;48.838;8.828;2023-02-23T16:36:24;8.90;99.90
67750;DHT22;54550;48.838;8.828;2023-02-23T16:39:03;9.00;99.90
67750;DHT22;54550;48.838;8.828;2023-02-23T16:41:31;8.90;99.90
67750;DHT22;54550;48.838;8.828;2023-02-23T16:43:59;8.80;99.90
67750;DHT22;54550;48.838;8.828;2023-02-23T16:46:29;8.70;99.90
67750;DHT22;54550;48.838;8.828;2023-02-23T16:48:55;8.70;99.90
67750;DHT22;54550;48.838;8.828;2023-02-23T16:51:23;8.60;99.90
67750;DHT22;54550;48.838;8.828;2023-02-23T16:53:50;8.50;99.90
67750;DHT22;54550;48.838;8.828;2023-02-23T16:56:18;8.50;99.90
67750;DHT22;54550;48.838;8.828;2023-02-23T16:58:49;8.50;99.90
67750;DHT22;54550;48.838;8.828;2023-02-23T17:01:18;8.40;99.90
67750;DHT22;54550;48.838;8.828;2023-02-23T17:03:43;8.70;99.90
67750;DHT22;54550;48.838;8.828;2023-02-23T17:06:11;8.40;99.90
67750;DHT22;54550;48.838;8.828;2023-02-23T17:08:39;8.40;99.90
67750;DHT22;54550;48.838;8.828;2023-02-23T17:11:05;8.90;99.90
67750;DHT22;54550;48.838;8.828;2023-02-23T17:13:32;8.40;99.90
67750;DHT22;54550;48.838;8.828;2023-02-23T17:15:59;8.50;99.90
67750;DHT22;54550;48.838;8.828;2023-02-23T17:18:28;8.40;99.90
67750;DHT22;54550;48.838;8.828;2023-02-23T17:20:55;8.40;99.90
67750;DHT22;54550;48.838;8.828;2023-02-23T17:23:24;8.30;99.90
67750;DHT22;54550;48.838;8.828;2023-02-23T17:25:53;8.30;99.90
67750;DHT22;54550;48.838;8.828;2023-02-23T17:28:20;8.30;99.90
67750;DHT22;54550;48.838;8.828;2023-02-23T17:30:46;8.30;99.90
67750;DHT22;54550;48.838;8.828;2023-02-23T17:33:12;8.30;99.90
67750;DHT22;54550;48.838;8.828;2023-02-23T17:35:38;8.30;99.90
67750;DHT22;54550;48.838;8.828;2023-02-23T17:38:07;8.30;99.90
67750;DHT22;54550;48.838;8.828;2023-02-23T17:40:33;8.30;99.90
67750;DHT22;54550;48.838;8.828;2023-02-23T17:43:03;8.30;99.90
67750;DHT22;54550;48.838;8.828;2023-02-23T17:45:29;8.30;99.90
67750;DHT22;54550;48.838;8.828;2023-02-23T17:47:56;8.30;99.90
67750;DHT22;54550;48.838;8.828;2023-02-23T17:50:22;8.30;99.90
67750;DHT22;54550;48.838;8.828;2023-02-23T17:52:49;8.30;99.90
67750;DHT22;54550;48.838;8.828;2023-02-23T17:55:15;8.30;99.90
67750;DHT22;54550;48.838;8.828;2023-02-23T17:57:41;8.30;99.90
67750;DHT22;54550;48.838;8.828;2023-02-23T18:00:10;8.30;99.90
67750;DHT22;54550;48.838;8.828;2023-02-23T18:02:40;8.30;99.90
67750;DHT22;54550;48.838;8.828;2023-02-23T18:05:08;8.20;99.90
67750;DHT22;54550;48.838;8.828;2023-02-23T18:07:34;8.20;99.90
67750;DHT22;54550;48.838;8.828;2023-02-23T18:10:00;8.20;99.90
67750;DHT22;54550;48.838;8.828;2023-02-23T18:12:26;8.20;99.90